sensor_id;sensor_type;location;lat;lon;timestamp;P1;durP1;ratioP1;P2;durP2;ratioP2
52554;SDS011;38455;52.710;6.502;2022-07-23T00:00:09;5.13;;;2.10;;
52554;SDS011;38455;52.710;6.502;2022-07-23T00:02:35;4.13;;;2.22;;
52554;SDS011;38455;52.710;6.502;2022-07-23T00:05:01;5.55;;;2.25;;
52554;SDS011;38455;52.710;6.502;2022-07-23T00:07:27;2.88;;;1.88;;
52554;SDS011;38455;52.710;6.502;2022-07-23T00:09:53;4.22;;;2.05;;
52554;SDS011;38455;52.710;6.502;2022-07-23T00:12:19;4.55;;;2.08;;
52554;SDS011;38455;52.710;6.502;2022-07-23T00:14:45;5.28;;;2.40;;
52554;SDS011;38455;52.710;6.502;2022-07-23T00:17:11;4.97;;;2.55;;
52554;SDS011;38455;52.710;6.502;2022-07-23T00:19:37;3.45;;;2.08;;
52554;SDS011;38455;52.710;6.502;2022-07-23T00:22:02;10.90;;;2.53;;
52554;SDS011;38455;52.710;6.502;2022-07-23T00:24:28;6.60;;;2.50;;
52554;SDS011;38455;52.710;6.502;2022-07-23T00:26:54;3.17;;;2.08;;
52554;SDS011;38455;52.710;6.502;2022-07-23T00:29:19;3.63;;;1.92;;
52554;SDS011;38455;52.710;6.502;2022-07-23T00:31:45;5.60;;;2.30;;
52554;SDS011;38455;52.710;6.502;2022-07-23T00:34:11;2.80;;;1.75;;
52554;SDS011;38455;52.710;6.502;2022-07-23T00:36:36;2.65;;;1.60;;
52554;SDS011;38455;52.710;6.502;2022-07-23T00:39:02;2.47;;;1.45;;
52554;SDS011;38455;52.710;6.502;2022-07-23T00:41:27;4.90;;;2.50;;
52554;SDS011;38455;52.710;6.502;2022-07-23T00:43:53;4.82;;;2.05;;
52554;SDS011;38455;52.710;6.502;2022-07-23T00:46:19;2.72;;;2.05;;
52554;SDS011;38455;52.710;6.502;2022-07-23T00:48:46;3.72;;;2.30;;
52554;SDS011;38455;52.710;6.502;2022-07-23T00:51:12;3.72;;;2.40;;
52554;SDS011;38455;52.710;6.502;2022-07-23T00:53:37;11.02;;;3.22;;
52554;SDS011;38455;52.710;6.502;2022-07-23T00:56:03;3.42;;;2.47;;
52554;SDS011;38455;52.710;6.502;2022-07-23T00:58:29;4.43;;;2.13;;
52554;SDS011;38455;52.710;6.502;2022-07-23T01:00:56;7.88;;;3.03;;
52554;SDS011;38455;52.710;6.502;2022-07-23T01:03:21;3.08;;;1.83;;
52554;SDS011;38455;52.710;6.502;2022-07-23T01:05:48;4.43;;;2.30;;
52554;SDS011;38455;52.710;6.502;2022-07-23T01:08:13;2.45;;;1.48;;
52554;SDS011;38455;52.710;6.502;2022-07-23T01:10:40;2.72;;;1.70;;
52554;SDS011;38455;52.710;6.502;2022-07-23T01:13:07;3.58;;;1.80;;
52554;SDS011;38455;52.710;6.502;2022-07-23T01:15:35;4.15;;;2.08;;
52554;SDS011;38455;52.710;6.502;2022-07-23T01:18:02;3.90;;;1.98;;
52554;SDS011;38455;52.710;6.502;2022-07-23T01:20:29;3.67;;;2.40;;
52554;SDS011;38455;52.710;6.502;2022-07-23T01:22:55;3.30;;;2.25;;
52554;SDS011;38455;52.710;6.502;2022-07-23T01:25:21;5.32;;;2.25;;
52554;SDS011;38455;52.710;6.502;2022-07-23T01:27:48;3.08;;;2.10;;
52554;SDS011;38455;52.710;6.502;2022-07-23T01:30:14;3.28;;;2.33;;
52554;SDS011;38455;52.710;6.502;2022-07-23T01:32:40;5.28;;;1.88;;
52554;SDS011;38455;52.710;6.502;2022-07-23T01:35:06;1.67;;;1.40;;
52554;SDS011;38455;52.710;6.502;2022-07-23T01:37:33;2.13;;;1.48;;
52554;SDS011;38455;52.710;6.502;2022-07-23T01:39:59;4.32;;;2.20;;
52554;SDS011;38455;52.710;6.502;2022-07-23T01:42:24;4.30;;;2.33;;
52554;SDS011;38455;52.710;6.502;2022-07-23T01:44:50;4.88;;;2.40;;
52554;SDS011;38455;52.710;6.502;2022-07-23T01:47:17;4.63;;;2.65;;
52554;SDS011;38455;52.710;6.502;2022-07-23T01:49:43;1.88;;;1.50;;
52554;SDS011;38455;52.710;6.502;2022-07-23T01:52:08;7.80;;;1.90;;
52554;SDS011;38455;52.710;6.502;2022-07-23T01:54:36;1.35;;;0.80;;
52554;SDS011;38455;52.710;6.502;2022-07-23T01:57:04;1.17;;;0.70;;
52554;SDS011;38455;52.710;6.502;2022-07-23T01:59:30;2.30;;;0.80;;
52554;SDS011;38455;52.710;6.502;2022-07-23T02:01:56;3.35;;;1.58;;
52554;SDS011;38455;52.710;6.502;2022-07-23T02:04:22;4.05;;;2.45;;
52554;SDS011;38455;52.710;6.502;2022-07-23T02:06:49;5.10;;;3.28;;
52554;SDS011;38455;52.710;6.502;2022-07-23T02:09:15;4.53;;;1.90;;
52554;SDS011;38455;52.710;6.502;2022-07-23T02:11:41;3.63;;;2.05;;
52554;SDS011;38455;52.710;6.502;2022-07-23T02:14:07;4.68;;;2.72;;
52554;SDS011;38455;52.710;6.502;2022-07-23T02:16:33;4.00;;;2.20;;
52554;SDS011;38455;52.710;6.502;2022-07-23T02:18:59;3.67;;;2.03;;
52554;SDS011;38455;52.710;6.502;2022-07-23T02:21:25;6.05;;;2.20;;
52554;SDS011;38455;52.710;6.502;2022-07-23T02:23:51;3.67;;;2.00;;
52554;SDS011;38455;52.710;6.502;2022-07-23T02:26:16;3.75;;;2.10;;
52554;SDS011;38455;52.710;6.502;2022-07-23T02:28:42;1.30;;;1.00;;
52554;SDS011;38455;52.710;6.502;2022-07-23T02:31:07;2.08;;;0.90;;
52554;SDS011;38455;52.710;6.502;2022-07-23T02:33:33;3.72;;;2.00;;
52554;SDS011;38455;52.710;6.502;2022-07-23T02:35:59;1.85;;;1.38;;
52554;SDS011;38455;52.710;6.502;2022-07-23T02:38:25;3.05;;;1.08;;
52554;SDS011;38455;52.710;6.502;2022-07-23T02:40:51;2.10;;;1.42;;
52554;SDS011;38455;52.710;6.502;2022-07-23T02:43:16;2.75;;;0.98;;
52554;SDS011;38455;52.710;6.502;2022-07-23T02:45:42;3.05;;;0.93;;
52554;SDS011;38455;52.710;6.502;2022-07-23T02:48:08;1.70;;;1.08;;
52554;SDS011;38455;52.710;6.502;2022-07-23T02:50:33;1.95;;;1.27;;
52554;SDS011;38455;52.710;6.502;2022-07-23T02:52:59;0.80;;;0.70;;
52554;SDS011;38455;52.710;6.502;2022-07-23T02:55:25;2.08;;;0.90;;
52554;SDS011;38455;52.710;6.502;2022-07-23T02:57:51;4.45;;;1.88;;
52554;SDS011;38455;52.710;6.502;2022-07-23T03:00:17;2.65;;;1.77;;
52554;SDS011;38455;52.710;6.502;2022-07-23T03:02:42;3.47;;;1.92;;
52554;SDS011;38455;52.710;6.502;2022-07-23T03:05:08;2.33;;;1.13;;
52554;SDS011;38455;52.710;6.502;2022-07-23T03:07:34;2.15;;;1.17;;
52554;SDS011;38455;52.710;6.502;2022-07-23T03:10:00;2.65;;;1.73;;
52554;SDS011;38455;52.710;6.502;2022-07-23T03:12:25;4.68;;;2.70;;
52554;SDS011;38455;52.710;6.502;2022-07-23T03:14:51;2.75;;;1.55;;
52554;SDS011;38455;52.710;6.502;2022-07-23T03:17:17;2.72;;;1.80;;
52554;SDS011;38455;52.710;6.502;2022-07-23T03:19:42;2.42;;;1.65;;
52554;SDS011;38455;52.710;6.502;2022-07-23T03:22:08;2.63;;;1.48;;
52554;SDS011;38455;52.710;6.502;2022-07-23T03:24:34;2.33;;;1.40;;
52554;SDS011;38455;52.710;6.502;2022-07-23T03:27:18;2.40;;;1.73;;
52554;SDS011;38455;52.710;6.502;2022-07-23T03:29:44;2.95;;;1.85;;
52554;SDS011;38455;52.710;6.502;2022-07-23T03:32:09;2.42;;;1.60;;
52554;SDS011;38455;52.710;6.502;2022-07-23T03:34:35;3.90;;;2.33;;
52554;SDS011;38455;52.710;6.502;2022-07-23T03:37:01;1.80;;;1.20;;
52554;SDS011;38455;52.710;6.502;2022-07-23T03:39:27;4.90;;;1.63;;
52554;SDS011;38455;52.710;6.502;2022-07-23T03:41:52;12.15;;;1.92;;
52554;SDS011;38455;52.710;6.502;2022-07-23T03:44:18;2.92;;;0.90;;
52554;SDS011;38455;52.710;6.502;2022-07-23T03:46:44;2.92;;;1.50;;
52554;SDS011;38455;52.710;6.502;2022-07-23T03:49:09;4.28;;;1.33;;
52554;SDS011;38455;52.710;6.502;2022-07-23T03:51:35;2.38;;;1.58;;
52554;SDS011;38455;52.710;6.502;2022-07-23T03:54:00;1.75;;;1.23;;
52554;SDS011;38455;52.710;6.502;2022-07-23T03:56:26;3.40;;;1.88;;
52554;SDS011;38455;52.710;6.502;2022-07-23T03:58:52;3.17;;;1.95;;
52554;SDS011;38455;52.710;6.502;2022-07-23T04:01:17;1.90;;;1.30;;
52554;SDS011;38455;52.710;6.502;2022-07-23T04:03:43;3.53;;;1.90;;
52554;SDS011;38455;52.710;6.502;2022-07-23T04:06:08;2.90;;;1.55;;
52554;SDS011;38455;52.710;6.502;2022-07-23T04:08:34;1.95;;;1.27;;
52554;SDS011;38455;52.710;6.502;2022-07-23T04:11:00;3.33;;;1.10;;
52554;SDS011;38455;52.710;6.502;2022-07-23T04:13:25;1.05;;;0.68;;
52554;SDS011;38455;52.710;6.502;2022-07-23T04:15:51;3.08;;;1.10;;
52554;SDS011;38455;52.710;6.502;2022-07-23T04:18:17;1.88;;;1.15;;
52554;SDS011;38455;52.710;6.502;2022-07-23T04:20:43;1.63;;;1.30;;
52554;SDS011;38455;52.710;6.502;2022-07-23T04:23:09;3.28;;;1.45;;
52554;SDS011;38455;52.710;6.502;2022-07-23T04:25:35;2.45;;;1.30;;
52554;SDS011;38455;52.710;6.502;2022-07-23T04:28:01;3.65;;;1.20;;
52554;SDS011;38455;52.710;6.502;2022-07-23T04:30:26;1.33;;;1.10;;
52554;SDS011;38455;52.710;6.502;2022-07-23T04:32:52;1.70;;;1.20;;
52554;SDS011;38455;52.710;6.502;2022-07-23T04:35:18;2.13;;;1.60;;
52554;SDS011;38455;52.710;6.502;2022-07-23T04:37:44;2.33;;;1.38;;
52554;SDS011;38455;52.710;6.502;2022-07-23T04:40:10;2.88;;;2.22;;
52554;SDS011;38455;52.710;6.502;2022-07-23T04:42:36;2.78;;;2.05;;
52554;SDS011;38455;52.710;6.502;2022-07-23T04:45:02;4.40;;;2.72;;
52554;SDS011;38455;52.710;6.502;2022-07-23T04:47:29;5.45;;;2.70;;
52554;SDS011;38455;52.710;6.502;2022-07-23T04:49:55;4.35;;;2.63;;
52554;SDS011;38455;52.710;6.502;2022-07-23T04:52:21;3.22;;;2.47;;
52554;SDS011;38455;52.710;6.502;2022-07-23T04:54:47;3.80;;;2.60;;
52554;SDS011;38455;52.710;6.502;2022-07-23T04:57:13;5.53;;;2.90;;
52554;SDS011;38455;52.710;6.502;2022-07-23T04:59:38;4.47;;;2.53;;
52554;SDS011;38455;52.710;6.502;2022-07-23T05:02:04;4.35;;;2.45;;
52554;SDS011;38455;52.710;6.502;2022-07-23T05:04:29;5.93;;;3.03;;
52554;SDS011;38455;52.710;6.502;2022-07-23T05:06:56;5.35;;;2.92;;
52554;SDS011;38455;52.710;6.502;2022-07-23T05:09:22;3.38;;;2.30;;
52554;SDS011;38455;52.710;6.502;2022-07-23T05:11:48;5.10;;;2.65;;
52554;SDS011;38455;52.710;6.502;2022-07-23T05:14:13;5.35;;;2.65;;
52554;SDS011;38455;52.710;6.502;2022-07-23T05:16:39;6.95;;;2.72;;
52554;SDS011;38455;52.710;6.502;2022-07-23T05:19:05;4.13;;;2.63;;
52554;SDS011;38455;52.710;6.502;2022-07-23T05:21:30;4.60;;;2.17;;
52554;SDS011;38455;52.710;6.502;2022-07-23T05:23:56;4.10;;;2.75;;
52554;SDS011;38455;52.710;6.502;2022-07-23T05:26:22;5.78;;;2.90;;
52554;SDS011;38455;52.710;6.502;2022-07-23T05:28:48;6.43;;;2.95;;
52554;SDS011;38455;52.710;6.502;2022-07-23T05:31:13;3.58;;;2.38;;
52554;SDS011;38455;52.710;6.502;2022-07-23T05:33:39;3.75;;;2.30;;
52554;SDS011;38455;52.710;6.502;2022-07-23T05:36:05;4.82;;;2.13;;
52554;SDS011;38455;52.710;6.502;2022-07-23T05:38:31;6.05;;;2.03;;
52554;SDS011;38455;52.710;6.502;2022-07-23T05:40:57;7.18;;;2.50;;
52554;SDS011;38455;52.710;6.502;2022-07-23T05:43:23;4.65;;;1.98;;
52554;SDS011;38455;52.710;6.502;2022-07-23T05:45:48;3.47;;;2.20;;
52554;SDS011;38455;52.710;6.502;2022-07-23T05:48:14;8.23;;;2.88;;
52554;SDS011;38455;52.710;6.502;2022-07-23T05:50:40;4.25;;;2.38;;
52554;SDS011;38455;52.710;6.502;2022-07-23T05:53:05;6.85;;;1.92;;
52554;SDS011;38455;52.710;6.502;2022-07-23T05:55:31;4.13;;;1.63;;
52554;SDS011;38455;52.710;6.502;2022-07-23T05:57:57;4.18;;;1.88;;
52554;SDS011;38455;52.710;6.502;2022-07-23T06:00:24;4.05;;;1.73;;
52554;SDS011;38455;52.710;6.502;2022-07-23T06:02:50;4.30;;;2.05;;
52554;SDS011;38455;52.710;6.502;2022-07-23T06:05:16;5.68;;;1.73;;
52554;SDS011;38455;52.710;6.502;2022-07-23T06:07:42;4.50;;;2.00;;
52554;SDS011;38455;52.710;6.502;2022-07-23T06:10:08;3.97;;;1.70;;
52554;SDS011;38455;52.710;6.502;2022-07-23T06:12:34;4.80;;;1.85;;
52554;SDS011;38455;52.710;6.502;2022-07-23T06:15:01;4.45;;;1.70;;
52554;SDS011;38455;52.710;6.502;2022-07-23T06:17:28;3.72;;;1.58;;
52554;SDS011;38455;52.710;6.502;2022-07-23T06:19:54;3.38;;;1.40;;
52554;SDS011;38455;52.710;6.502;2022-07-23T06:22:19;1.80;;;1.38;;
52554;SDS011;38455;52.710;6.502;2022-07-23T06:24:46;2.45;;;1.15;;
52554;SDS011;38455;52.710;6.502;2022-07-23T06:27:11;2.67;;;1.25;;
52554;SDS011;38455;52.710;6.502;2022-07-23T06:29:38;2.22;;;1.00;;
52554;SDS011;38455;52.710;6.502;2022-07-23T06:32:05;2.80;;;0.90;;
52554;SDS011;38455;52.710;6.502;2022-07-23T06:34:32;1.90;;;0.80;;
52554;SDS011;38455;52.710;6.502;2022-07-23T06:36:58;1.38;;;0.70;;
52554;SDS011;38455;52.710;6.502;2022-07-23T06:39:24;1.48;;;0.70;;
52554;SDS011;38455;52.710;6.502;2022-07-23T06:41:49;2.80;;;1.00;;
52554;SDS011;38455;52.710;6.502;2022-07-23T06:44:15;3.55;;;0.90;;
52554;SDS011;38455;52.710;6.502;2022-07-23T06:46:41;5.60;;;1.27;;
52554;SDS011;38455;52.710;6.502;2022-07-23T06:49:07;3.45;;;1.20;;
52554;SDS011;38455;52.710;6.502;2022-07-23T06:51:33;2.40;;;1.00;;
52554;SDS011;38455;52.710;6.502;2022-07-23T06:53:59;3.38;;;0.95;;
52554;SDS011;38455;52.710;6.502;2022-07-23T06:56:24;1.92;;;0.90;;
52554;SDS011;38455;52.710;6.502;2022-07-23T06:58:50;2.63;;;1.25;;
52554;SDS011;38455;52.710;6.502;2022-07-23T07:01:16;1.67;;;0.88;;
52554;SDS011;38455;52.710;6.502;2022-07-23T07:03:42;2.60;;;0.93;;
52554;SDS011;38455;52.710;6.502;2022-07-23T07:06:07;2.42;;;0.80;;
52554;SDS011;38455;52.710;6.502;2022-07-23T07:08:33;3.10;;;1.08;;
52554;SDS011;38455;52.710;6.502;2022-07-23T07:10:59;2.20;;;0.90;;
52554;SDS011;38455;52.710;6.502;2022-07-23T07:13:24;4.22;;;1.13;;
52554;SDS011;38455;52.710;6.502;2022-07-23T07:15:50;2.90;;;0.80;;
52554;SDS011;38455;52.710;6.502;2022-07-23T07:18:16;1.33;;;0.80;;
52554;SDS011;38455;52.710;6.502;2022-07-23T07:20:41;4.38;;;0.93;;
52554;SDS011;38455;52.710;6.502;2022-07-23T07:23:07;1.85;;;0.50;;
52554;SDS011;38455;52.710;6.502;2022-07-23T07:25:33;2.25;;;0.90;;
52554;SDS011;38455;52.710;6.502;2022-07-23T07:27:58;1.13;;;0.60;;
52554;SDS011;38455;52.710;6.502;2022-07-23T07:30:24;4.68;;;1.13;;
52554;SDS011;38455;52.710;6.502;2022-07-23T07:32:50;1.77;;;0.73;;
52554;SDS011;38455;52.710;6.502;2022-07-23T07:35:15;1.83;;;0.60;;
52554;SDS011;38455;52.710;6.502;2022-07-23T07:37:41;1.48;;;0.70;;
52554;SDS011;38455;52.710;6.502;2022-07-23T07:40:07;2.95;;;0.90;;
52554;SDS011;38455;52.710;6.502;2022-07-23T07:42:33;1.85;;;0.70;;
52554;SDS011;38455;52.710;6.502;2022-07-23T07:44:59;3.00;;;0.77;;
52554;SDS011;38455;52.710;6.502;2022-07-23T07:47:25;0.85;;;0.57;;
52554;SDS011;38455;52.710;6.502;2022-07-23T07:49:51;1.40;;;0.63;;
52554;SDS011;38455;52.710;6.502;2022-07-23T07:52:16;4.20;;;0.60;;
52554;SDS011;38455;52.710;6.502;2022-07-23T07:54:42;1.58;;;0.57;;
52554;SDS011;38455;52.710;6.502;2022-07-23T07:57:08;4.07;;;0.70;;
52554;SDS011;38455;52.710;6.502;2022-07-23T07:59:34;1.42;;;0.80;;
52554;SDS011;38455;52.710;6.502;2022-07-23T08:02:00;1.60;;;0.50;;
52554;SDS011;38455;52.710;6.502;2022-07-23T08:04:26;2.58;;;0.63;;
52554;SDS011;38455;52.710;6.502;2022-07-23T08:06:52;1.92;;;0.63;;
52554;SDS011;38455;52.710;6.502;2022-07-23T08:09:17;2.33;;;0.60;;
52554;SDS011;38455;52.710;6.502;2022-07-23T08:11:43;0.75;;;0.40;;
52554;SDS011;38455;52.710;6.502;2022-07-23T08:14:09;0.52;;;0.30;;
52554;SDS011;38455;52.710;6.502;2022-07-23T08:16:36;0.85;;;0.50;;
52554;SDS011;38455;52.710;6.502;2022-07-23T08:19:01;4.60;;;0.93;;
52554;SDS011;38455;52.710;6.502;2022-07-23T08:21:27;1.98;;;0.38;;
52554;SDS011;38455;52.710;6.502;2022-07-23T08:23:53;0.85;;;0.40;;
52554;SDS011;38455;52.710;6.502;2022-07-23T08:26:18;1.33;;;0.50;;
52554;SDS011;38455;52.710;6.502;2022-07-23T08:28:44;0.68;;;0.40;;
52554;SDS011;38455;52.710;6.502;2022-07-23T08:31:10;0.98;;;0.35;;
52554;SDS011;38455;52.710;6.502;2022-07-23T08:33:37;1.73;;;0.35;;
52554;SDS011;38455;52.710;6.502;2022-07-23T08:36:03;1.08;;;0.38;;
52554;SDS011;38455;52.710;6.502;2022-07-23T08:38:29;0.57;;;0.40;;
52554;SDS011;38455;52.710;6.502;2022-07-23T08:40:56;1.15;;;0.40;;
52554;SDS011;38455;52.710;6.502;2022-07-23T08:43:25;2.03;;;0.30;;
52554;SDS011;38455;52.710;6.502;2022-07-23T08:45:53;0.57;;;0.30;;
52554;SDS011;38455;52.710;6.502;2022-07-23T08:48:23;1.67;;;0.55;;
52554;SDS011;38455;52.710;6.502;2022-07-23T08:50:51;2.72;;;0.70;;
52554;SDS011;38455;52.710;6.502;2022-07-23T08:53:20;1.33;;;0.45;;
52554;SDS011;38455;52.710;6.502;2022-07-23T08:55:47;1.45;;;0.47;;
52554;SDS011;38455;52.710;6.502;2022-07-23T08:58:14;2.67;;;0.60;;
52554;SDS011;38455;52.710;6.502;2022-07-23T09:00:40;1.85;;;0.40;;
52554;SDS011;38455;52.710;6.502;2022-07-23T09:03:06;2.88;;;0.80;;
52554;SDS011;38455;52.710;6.502;2022-07-23T09:05:32;1.38;;;0.80;;
52554;SDS011;38455;52.710;6.502;2022-07-23T09:10:30;0.88;;;0.40;;
52554;SDS011;38455;52.710;6.502;2022-07-23T09:12:59;0.98;;;0.47;;
52554;SDS011;38455;52.710;6.502;2022-07-23T09:15:25;1.02;;;0.50;;
52554;SDS011;38455;52.710;6.502;2022-07-23T09:17:50;2.03;;;0.45;;
52554;SDS011;38455;52.710;6.502;2022-07-23T09:20:16;1.67;;;0.60;;
52554;SDS011;38455;52.710;6.502;2022-07-23T09:22:46;0.95;;;0.65;;
52554;SDS011;38455;52.710;6.502;2022-07-23T09:25:16;0.85;;;0.40;;
52554;SDS011;38455;52.710;6.502;2022-07-23T09:27:47;1.92;;;0.50;;
52554;SDS011;38455;52.710;6.502;2022-07-23T09:30:23;1.25;;;0.50;;
52554;SDS011;38455;52.710;6.502;2022-07-23T09:35:50;5.22;;;0.88;;
52554;SDS011;38455;52.710;6.502;2022-07-23T09:38:18;2.38;;;0.60;;
52554;SDS011;38455;52.710;6.502;2022-07-23T09:40:46;0.85;;;0.50;;
52554;SDS011;38455;52.710;6.502;2022-07-23T09:43:29;3.03;;;0.50;;
52554;SDS011;38455;52.710;6.502;2022-07-23T09:46:00;1.80;;;0.32;;
52554;SDS011;38455;52.710;6.502;2022-07-23T09:48:51;0.50;;;0.40;;
52554;SDS011;38455;52.710;6.502;2022-07-23T09:51:21;0.75;;;0.32;;
52554;SDS011;38455;52.710;6.502;2022-07-23T09:53:53;2.10;;;0.47;;
52554;SDS011;38455;52.710;6.502;2022-07-23T09:56:19;1.30;;;0.40;;
52554;SDS011;38455;52.710;6.502;2022-07-23T09:58:45;2.95;;;0.50;;
52554;SDS011;38455;52.710;6.502;2022-07-23T10:01:17;0.90;;;0.40;;
52554;SDS011;38455;52.710;6.502;2022-07-23T10:03:53;2.78;;;0.82;;
52554;SDS011;38455;52.710;6.502;2022-07-23T10:06:19;1.67;;;0.40;;
52554;SDS011;38455;52.710;6.502;2022-07-23T10:08:44;0.73;;;0.30;;
52554;SDS011;38455;52.710;6.502;2022-07-23T10:11:13;0.70;;;0.30;;
52554;SDS011;38455;52.710;6.502;2022-07-23T10:13:39;0.60;;;0.35;;
52554;SDS011;38455;52.710;6.502;2022-07-23T10:16:20;1.85;;;0.93;;
52554;SDS011;38455;52.710;6.502;2022-07-23T10:18:46;0.95;;;0.35;;
52554;SDS011;38455;52.710;6.502;2022-07-23T10:21:13;1.02;;;0.50;;
52554;SDS011;38455;52.710;6.502;2022-07-23T10:23:47;1.38;;;0.70;;
52554;SDS011;38455;52.710;6.502;2022-07-23T10:26:41;1.13;;;0.40;;
52554;SDS011;38455;52.710;6.502;2022-07-23T10:32:17;1.08;;;0.45;;
52554;SDS011;38455;52.710;6.502;2022-07-23T10:37:38;1.17;;;0.50;;
52554;SDS011;38455;52.710;6.502;2022-07-23T10:42:51;1.40;;;0.40;;
52554;SDS011;38455;52.710;6.502;2022-07-23T10:45:35;0.65;;;0.40;;
52554;SDS011;38455;52.710;6.502;2022-07-23T10:48:11;0.70;;;0.68;;
52554;SDS011;38455;52.710;6.502;2022-07-23T10:50:40;2.20;;;0.68;;
52554;SDS011;38455;52.710;6.502;2022-07-23T10:53:11;0.50;;;0.45;;
52554;SDS011;38455;52.710;6.502;2022-07-23T10:55:40;1.75;;;0.50;;
52554;SDS011;38455;52.710;6.502;2022-07-23T11:00:46;0.70;;;0.40;;
52554;SDS011;38455;52.710;6.502;2022-07-23T11:03:31;2.45;;;0.70;;
52554;SDS011;38455;52.710;6.502;2022-07-23T11:06:01;0.40;;;0.30;;
52554;SDS011;38455;52.710;6.502;2022-07-23T11:08:28;1.50;;;0.45;;
52554;SDS011;38455;52.710;6.502;2022-07-23T11:13:29;1.67;;;0.40;;
52554;SDS011;38455;52.710;6.502;2022-07-23T11:24:03;1.20;;;0.60;;
52554;SDS011;38455;52.710;6.502;2022-07-23T11:32:06;2.33;;;0.85;;
52554;SDS011;38455;52.710;6.502;2022-07-23T11:37:00;1.55;;;0.65;;
52554;SDS011;38455;52.710;6.502;2022-07-23T11:39:28;2.33;;;0.80;;
52554;SDS011;38455;52.710;6.502;2022-07-23T11:41:55;1.02;;;0.85;;
52554;SDS011;38455;52.710;6.502;2022-07-23T11:44:25;1.08;;;0.65;;
52554;SDS011;38455;52.710;6.502;2022-07-23T11:46:58;1.88;;;0.70;;
52554;SDS011;38455;52.710;6.502;2022-07-23T11:49:25;0.70;;;0.60;;
52554;SDS011;38455;52.710;6.502;2022-07-23T11:52:02;3.33;;;0.80;;
52554;SDS011;38455;52.710;6.502;2022-07-23T11:54:32;1.85;;;0.70;;
52554;SDS011;38455;52.710;6.502;2022-07-23T11:56:59;1.17;;;0.65;;
52554;SDS011;38455;52.710;6.502;2022-07-23T11:59:29;1.35;;;0.68;;
52554;SDS011;38455;52.710;6.502;2022-07-23T12:02:01;3.75;;;0.60;;
52554;SDS011;38455;52.710;6.502;2022-07-23T12:04:51;1.27;;;0.60;;
52554;SDS011;38455;52.710;6.502;2022-07-23T12:09:58;1.70;;;0.60;;
52554;SDS011;38455;52.710;6.502;2022-07-23T12:12:25;2.08;;;0.80;;
52554;SDS011;38455;52.710;6.502;2022-07-23T12:14:52;1.38;;;0.80;;
52554;SDS011;38455;52.710;6.502;2022-07-23T12:17:27;0.57;;;0.47;;
52554;SDS011;38455;52.710;6.502;2022-07-23T12:22:24;4.55;;;1.13;;
52554;SDS011;38455;52.710;6.502;2022-07-23T12:24:59;1.42;;;0.80;;
52554;SDS011;38455;52.710;6.502;2022-07-23T12:27:27;1.52;;;0.88;;
52554;SDS011;38455;52.710;6.502;2022-07-23T12:29:53;1.77;;;0.70;;
52554;SDS011;38455;52.710;6.502;2022-07-23T12:32:23;1.90;;;0.95;;
52554;SDS011;38455;52.710;6.502;2022-07-23T12:37:33;2.10;;;0.70;;
52554;SDS011;38455;52.710;6.502;2022-07-23T12:42:53;1.15;;;0.68;;
52554;SDS011;38455;52.710;6.502;2022-07-23T12:45:20;3.42;;;1.00;;
52554;SDS011;38455;52.710;6.502;2022-07-23T12:53:12;4.85;;;1.33;;
52554;SDS011;38455;52.710;6.502;2022-07-23T12:55:46;1.63;;;0.70;;
52554;SDS011;38455;52.710;6.502;2022-07-23T12:58:14;3.15;;;0.75;;
52554;SDS011;38455;52.710;6.502;2022-07-23T13:00:52;1.15;;;0.85;;
52554;SDS011;38455;52.710;6.502;2022-07-23T13:03:36;2.05;;;1.15;;
52554;SDS011;38455;52.710;6.502;2022-07-23T13:06:05;0.90;;;0.60;;
52554;SDS011;38455;52.710;6.502;2022-07-23T13:08:33;1.50;;;0.77;;
52554;SDS011;38455;52.710;6.502;2022-07-23T13:10:59;1.20;;;0.88;;
52554;SDS011;38455;52.710;6.502;2022-07-23T13:13:27;8.77;;;3.47;;
52554;SDS011;38455;52.710;6.502;2022-07-23T13:15:55;2.97;;;0.98;;
52554;SDS011;38455;52.710;6.502;2022-07-23T13:18:22;1.92;;;1.00;;
52554;SDS011;38455;52.710;6.502;2022-07-23T13:20:48;1.67;;;1.02;;
52554;SDS011;38455;52.710;6.502;2022-07-23T13:23:14;2.50;;;1.30;;
52554;SDS011;38455;52.710;6.502;2022-07-23T13:25:41;3.47;;;0.90;;
52554;SDS011;38455;52.710;6.502;2022-07-23T13:28:07;3.65;;;1.00;;
52554;SDS011;38455;52.710;6.502;2022-07-23T13:30:33;1.30;;;0.80;;
52554;SDS011;38455;52.710;6.502;2022-07-23T13:32:59;1.73;;;0.90;;
52554;SDS011;38455;52.710;6.502;2022-07-23T13:35:26;2.40;;;1.02;;
52554;SDS011;38455;52.710;6.502;2022-07-23T13:37:52;1.65;;;0.90;;
52554;SDS011;38455;52.710;6.502;2022-07-23T13:40:17;2.13;;;1.00;;
52554;SDS011;38455;52.710;6.502;2022-07-23T13:42:43;1.38;;;0.65;;
52554;SDS011;38455;52.710;6.502;2022-07-23T13:45:09;1.52;;;0.77;;
52554;SDS011;38455;52.710;6.502;2022-07-23T13:47:35;2.45;;;0.90;;
52554;SDS011;38455;52.710;6.502;2022-07-23T13:50:00;2.33;;;1.08;;
52554;SDS011;38455;52.710;6.502;2022-07-23T13:52:26;2.10;;;0.93;;
52554;SDS011;38455;52.710;6.502;2022-07-23T13:54:51;2.85;;;0.73;;
52554;SDS011;38455;52.710;6.502;2022-07-23T13:57:17;2.55;;;1.35;;
52554;SDS011;38455;52.710;6.502;2022-07-23T13:59:43;1.70;;;1.00;;
52554;SDS011;38455;52.710;6.502;2022-07-23T14:02:09;1.33;;;0.70;;
52554;SDS011;38455;52.710;6.502;2022-07-23T14:04:35;1.55;;;1.00;;
52554;SDS011;38455;52.710;6.502;2022-07-23T14:07:00;4.65;;;1.20;;
52554;SDS011;38455;52.710;6.502;2022-07-23T14:09:26;1.50;;;0.85;;
52554;SDS011;38455;52.710;6.502;2022-07-23T14:11:52;2.33;;;0.85;;
52554;SDS011;38455;52.710;6.502;2022-07-23T14:14:18;3.33;;;1.02;;
52554;SDS011;38455;52.710;6.502;2022-07-23T14:16:44;1.08;;;0.80;;
52554;SDS011;38455;52.710;6.502;2022-07-23T14:19:10;1.80;;;0.82;;
52554;SDS011;38455;52.710;6.502;2022-07-23T14:21:37;4.20;;;0.90;;
52554;SDS011;38455;52.710;6.502;2022-07-23T14:24:02;1.63;;;0.70;;
52554;SDS011;38455;52.710;6.502;2022-07-23T14:26:28;2.58;;;1.00;;
52554;SDS011;38455;52.710;6.502;2022-07-23T14:28:54;1.17;;;0.70;;
52554;SDS011;38455;52.710;6.502;2022-07-23T14:31:20;2.97;;;0.95;;
52554;SDS011;38455;52.710;6.502;2022-07-23T14:33:46;1.83;;;0.82;;
52554;SDS011;38455;52.710;6.502;2022-07-23T14:36:12;2.33;;;0.98;;
52554;SDS011;38455;52.710;6.502;2022-07-23T14:38:38;1.95;;;0.80;;
52554;SDS011;38455;52.710;6.502;2022-07-23T14:41:03;3.97;;;1.00;;
52554;SDS011;38455;52.710;6.502;2022-07-23T14:43:32;2.25;;;0.95;;
52554;SDS011;38455;52.710;6.502;2022-07-23T14:45:58;3.08;;;1.00;;
52554;SDS011;38455;52.710;6.502;2022-07-23T14:48:24;1.20;;;0.80;;
52554;SDS011;38455;52.710;6.502;2022-07-23T14:50:50;1.20;;;0.88;;
52554;SDS011;38455;52.710;6.502;2022-07-23T14:53:15;1.58;;;0.88;;
52554;SDS011;38455;52.710;6.502;2022-07-23T14:55:41;1.88;;;0.75;;
52554;SDS011;38455;52.710;6.502;2022-07-23T14:58:07;2.00;;;1.23;;
52554;SDS011;38455;52.710;6.502;2022-07-23T15:00:32;2.00;;;0.90;;
52554;SDS011;38455;52.710;6.502;2022-07-23T15:02:58;4.03;;;0.88;;
52554;SDS011;38455;52.710;6.502;2022-07-23T15:05:24;1.52;;;0.80;;
52554;SDS011;38455;52.710;6.502;2022-07-23T15:07:49;2.05;;;0.70;;
52554;SDS011;38455;52.710;6.502;2022-07-23T15:10:15;1.42;;;0.90;;
52554;SDS011;38455;52.710;6.502;2022-07-23T15:12:41;1.50;;;0.90;;
52554;SDS011;38455;52.710;6.502;2022-07-23T15:15:07;1.83;;;1.00;;
52554;SDS011;38455;52.710;6.502;2022-07-23T15:17:33;1.50;;;0.82;;
52554;SDS011;38455;52.710;6.502;2022-07-23T15:19:58;1.75;;;1.10;;
52554;SDS011;38455;52.710;6.502;2022-07-23T15:22:24;1.77;;;0.65;;
52554;SDS011;38455;52.710;6.502;2022-07-23T15:24:50;1.95;;;1.35;;
52554;SDS011;38455;52.710;6.502;2022-07-23T15:27:16;3.10;;;1.73;;
52554;SDS011;38455;52.710;6.502;2022-07-23T15:29:43;4.28;;;1.02;;
52554;SDS011;38455;52.710;6.502;2022-07-23T15:32:09;1.70;;;1.02;;
52554;SDS011;38455;52.710;6.502;2022-07-23T15:34:36;1.70;;;1.00;;
52554;SDS011;38455;52.710;6.502;2022-07-23T15:37:02;2.90;;;0.93;;